sensor_id;sensor_type;location;lat;lon;timestamp;pressure;altitude;pressure_sealevel;temperature;humidity
54546;BME280;40444;45.184;9.850;2024-02-04T00:02:01;101731.91;;;5.01;100.00
54546;BME280;40444;45.184;9.850;2024-02-04T00:04:30;101725.66;;;5.02;100.00
54546;BME280;40444;45.184;9.850;2024-02-04T00:07:00;101730.09;;;5.02;100.00
54546;BME280;40444;45.184;9.850;2024-02-04T00:09:29;101723.94;;;5.01;100.00
54546;BME280;40444;45.184;9.850;2024-02-04T00:11:59;101730.03;;;5.03;100.00
54546;BME280;40444;45.184;9.850;2024-02-04T00:14:32;101723.22;;;4.98;100.00
54546;BME280;40444;45.184;9.850;2024-02-04T00:17:00;101720.66;;;4.96;100.00
54546;BME280;40444;45.184;9.850;2024-02-04T00:19:29;101723.44;;;4.93;100.00
54546;BME280;40444;45.184;9.850;2024-02-04T00:21:57;101723.44;;;4.93;100.00
54546;BME280;40444;45.184;9.850;2024-02-04T00:24:26;101719.94;;;4.93;100.00
54546;BME280;40444;45.184;9.850;2024-02-04T00:26:54;101724.44;;;4.91;100.00
54546;BME280;40444;45.184;9.850;2024-02-04T00:29:23;101722.88;;;4.87;100.00
54546;BME280;40444;45.184;9.850;2024-02-04T00:31:51;101721.22;;;4.84;100.00
54546;BME280;40444;45.184;9.850;2024-02-04T00:34:20;101715.06;;;4.84;100.00
54546;BME280;40444;45.184;9.850;2024-02-04T00:36:48;101715.84;;;4.86;100.00
54546;BME280;40444;45.184;9.850;2024-02-04T00:39:17;101723.81;;;4.86;100.00
54546;BME280;40444;45.184;9.850;2024-02-04T00:41:45;101720.38;;;4.84;100.00
54546;BME280;40444;45.184;9.850;2024-02-04T00:44:13;101726.69;;;4.81;100.00
54546;BME280;40444;45.184;9.850;2024-02-04T00:46:42;101723.16;;;4.80;100.00
54546;BME280;40444;45.184;9.850;2024-02-04T00:49:10;101715.69;;;4.89;100.00
54546;BME280;40444;45.184;9.850;2024-02-04T00:51:39;101721.22;;;4.84;100.00
54546;BME280;40444;45.184;9.850;2024-02-04T00:54:07;101718.66;;;4.82;100.00
54546;BME280;40444;45.184;9.850;2024-02-04T00:56:36;101710.53;;;4.86;100.00
54546;BME280;40444;45.184;9.850;2024-02-04T00:59:05;101702.56;;;4.86;100.00
54546;BME280;40444;45.184;9.850;2024-02-04T01:01:33;101712.94;;;4.90;100.00
54546;BME280;40444;45.184;9.850;2024-02-04T01:04:02;101716.41;;;4.92;100.00
54546;BME280;40444;45.184;9.850;2024-02-04T01:06:31;101716.47;;;4.91;100.00
54546;BME280;40444;45.184;9.850;2024-02-04T01:09:14;101722.66;;;4.91;100.00
54546;BME280;40444;45.184;9.850;2024-02-04T01:11:42;101710.31;;;4.90;100.00
54546;BME280;40444;45.184;9.850;2024-02-04T01:14:10;101729.13;;;4.86;100.00
54546;BME280;40444;45.184;9.850;2024-02-04T01:16:39;101735.28;;;4.67;100.00
54546;BME280;40444;45.184;9.850;2024-02-04T01:19:07;101726.56;;;4.65;100.00
54546;BME280;40444;45.184;9.850;2024-02-04T01:21:35;101722.16;;;4.64;100.00
54546;BME280;40444;45.184;9.850;2024-02-04T01:24:04;101712.56;;;4.62;100.00
54546;BME280;40444;45.184;9.850;2024-02-04T01:26:32;101717.78;;;4.63;100.00
54546;BME280;40444;45.184;9.850;2024-02-04T01:29:01;101720.94;;;4.71;100.00
54546;BME280;40444;45.184;9.850;2024-02-04T01:31:29;101726.13;;;4.74;100.00
54546;BME280;40444;45.184;9.850;2024-02-04T01:33:58;101725.41;;;4.71;100.00
54546;BME280;40444;45.184;9.850;2024-02-04T01:36:27;101733.16;;;4.75;100.00
54546;BME280;40444;45.184;9.850;2024-02-04T01:38:56;101726.13;;;4.74;100.00
54546;BME280;40444;45.184;9.850;2024-02-04T01:41:24;101716.56;;;4.70;100.00
54546;BME280;40444;45.184;9.850;2024-02-04T01:43:55;101720.00;;;4.72;100.00
54546;BME280;40444;45.184;9.850;2024-02-04T01:46:24;101709.56;;;4.69;100.00
54546;BME280;40444;45.184;9.850;2024-02-04T01:48:53;101723.72;;;4.68;100.00
54546;BME280;40444;45.184;9.850;2024-02-04T01:51:22;101720.88;;;4.73;100.00
54546;BME280;40444;45.184;9.850;2024-02-04T01:53:51;101727.53;;;4.63;100.00
54546;BME280;40444;45.184;9.850;2024-02-04T01:56:20;101723.91;;;4.65;100.00
54546;BME280;40444;45.184;9.850;2024-02-04T01:58:49;101715.22;;;4.62;100.00
54546;BME280;40444;45.184;9.850;2024-02-04T02:01:19;101714.16;;;4.47;100.00
54546;BME280;40444;45.184;9.850;2024-02-04T02:03:48;101715.44;;;4.38;100.00
54546;BME280;40444;45.184;9.850;2024-02-04T02:06:21;101716.41;;;4.36;100.00
54546;BME280;40444;45.184;9.850;2024-02-04T02:08:49;101710.25;;;4.35;100.00
54546;BME280;40444;45.184;9.850;2024-02-04T02:11:21;101714.78;;;4.33;100.00
54546;BME280;40444;45.184;9.850;2024-02-04T02:13:57;101723.66;;;4.32;100.00
54546;BME280;40444;45.184;9.850;2024-02-04T02:16:31;101711.66;;;4.23;100.00
54546;BME280;40444;45.184;9.850;2024-02-04T02:19:16;101713.75;;;4.17;100.00
54546;BME280;40444;45.184;9.850;2024-02-04T02:21:56;101713.22;;;4.09;100.00
54546;BME280;40444;45.184;9.850;2024-02-04T02:24:58;101700.03;;;4.07;100.00
54546;BME280;40444;45.184;9.850;2024-02-04T02:27:27;101693.19;;;4.01;100.00
54546;BME280;40444;45.184;9.850;2024-02-04T02:29:56;101714.50;;;4.00;100.00
54546;BME280;40444;45.184;9.850;2024-02-04T02:32:25;101713.63;;;3.99;100.00
54546;BME280;40444;45.184;9.850;2024-02-04T02:34:53;101711.09;;;3.96;100.00
54546;BME280;40444;45.184;9.850;2024-02-04T02:42:53;101714.56;;;3.78;100.00
54546;BME280;40444;45.184;9.850;2024-02-04T02:45:24;101704.91;;;3.77;100.00
54546;BME280;40444;45.184;9.850;2024-02-04T02:47:54;101709.47;;;3.73;100.00
54546;BME280;40444;45.184;9.850;2024-02-04T02:50:22;101698.94;;;3.72;100.00
54546;BME280;40444;45.184;9.850;2024-02-04T02:52:51;101705.44;;;3.65;100.00
54546;BME280;40444;45.184;9.850;2024-02-04T02:55:20;101717.94;;;3.61;100.00
54546;BME280;40444;45.184;9.850;2024-02-04T02:57:48;101717.09;;;3.61;100.00
54546;BME280;40444;45.184;9.850;2024-02-04T03:00:17;101717.94;;;3.61;100.00
54546;BME280;40444;45.184;9.850;2024-02-04T03:02:45;101715.38;;;3.60;100.00
54546;BME280;40444;45.184;9.850;2024-02-04T03:05:17;101724.19;;;3.60;100.00
54546;BME280;40444;45.184;9.850;2024-02-04T03:07:45;101733.13;;;3.58;100.00
54546;BME280;40444;45.184;9.850;2024-02-04T03:10:14;101714.63;;;3.56;100.00
54546;BME280;40444;45.184;9.850;2024-02-04T03:12:43;101723.63;;;3.52;100.00
54546;BME280;40444;45.184;9.850;2024-02-04T03:15:11;101736.09;;;3.50;100.00
54546;BME280;40444;45.184;9.850;2024-02-04T03:17:40;101731.00;;;3.45;100.00
54546;BME280;40444;45.184;9.850;2024-02-04T03:20:10;101727.53;;;3.43;100.00
54546;BME280;40444;45.184;9.850;2024-02-04T03:22:39;101717.84;;;3.22;100.00
54546;BME280;40444;45.184;9.850;2024-02-04T03:25:07;101712.75;;;3.17;100.00
54546;BME280;40444;45.184;9.850;2024-02-04T03:27:36;101708.88;;;3.04;100.00
54546;BME280;40444;45.184;9.850;2024-02-04T03:30:05;101707.94;;;3.05;100.00
54546;BME280;40444;45.184;9.850;2024-02-04T03:32:34;101695.63;;;3.04;100.00
54546;BME280;40444;45.184;9.850;2024-02-04T03:35:03;101689.78;;;2.96;100.00
54546;BME280;40444;45.184;9.850;2024-02-04T03:37:33;101671.81;;;3.04;100.00
54546;BME280;40444;45.184;9.850;2024-02-04T03:40:01;101653.19;;;3.06;100.00
54546;BME280;40444;45.184;9.850;2024-02-04T03:42:31;101651.66;;;3.00;100.00
54546;BME280;40444;45.184;9.850;2024-02-04T03:45:00;101661.22;;;3.04;100.00
54546;BME280;40444;45.184;9.850;2024-02-04T03:47:31;101655.91;;;3.04;100.00
54546;BME280;40444;45.184;9.850;2024-02-04T03:49:59;101632.94;;;3.04;100.00
54546;BME280;40444;45.184;9.850;2024-02-04T03:52:28;101643.47;;;3.06;100.00
54546;BME280;40444;45.184;9.850;2024-02-04T03:54:56;101651.78;;;2.97;100.00
54546;BME280;40444;45.184;9.850;2024-02-04T03:57:28;101649.88;;;2.78;100.00
54546;BME280;40444;45.184;9.850;2024-02-04T03:59:56;101645.38;;;2.81;100.00
54546;BME280;40444;45.184;9.850;2024-02-04T04:02:24;101644.53;;;2.80;100.00
54546;BME280;40444;45.184;9.850;2024-02-04T04:04:53;101643.41;;;2.86;100.00
54546;BME280;40444;45.184;9.850;2024-02-04T04:07:21;101648.69;;;2.86;100.00
54546;BME280;40444;45.184;9.850;2024-02-04T04:09:50;101651.91;;;2.72;100.00
54546;BME280;40444;45.184;9.850;2024-02-04T04:12:19;101652.16;;;2.66;100.00
54546;BME280;40444;45.184;9.850;2024-02-04T04:14:47;101653.19;;;2.62;100.00
54546;BME280;40444;45.184;9.850;2024-02-04T04:17:15;101659.50;;;2.59;100.00
54546;BME280;40444;45.184;9.850;2024-02-04T04:19:43;101663.84;;;2.60;100.00
54546;BME280;40444;45.184;9.850;2024-02-04T04:22:12;101648.38;;;2.49;100.00
54546;BME280;40444;45.184;9.850;2024-02-04T04:24:40;101657.88;;;2.55;100.00
54546;BME280;40444;45.184;9.850;2024-02-04T04:27:09;101667.25;;;2.40;100.00
54546;BME280;40444;45.184;9.850;2024-02-04T04:29:37;101664.94;;;2.33;100.00
54546;BME280;40444;45.184;9.850;2024-02-04T04:32:06;101660.69;;;2.28;100.00
54546;BME280;40444;45.184;9.850;2024-02-04T04:34:34;101661.56;;;2.27;100.00
54546;BME280;40444;45.184;9.850;2024-02-04T04:37:02;101669.69;;;2.23;100.00
54546;BME280;40444;45.184;9.850;2024-02-04T04:39:31;101672.28;;;2.24;100.00
54546;BME280;40444;45.184;9.850;2024-02-04T04:41:59;101663.44;;;2.25;100.00
54546;BME280;40444;45.184;9.850;2024-02-04T04:44:27;101667.34;;;2.15;100.00
54546;BME280;40444;45.184;9.850;2024-02-04T04:46:55;101678.03;;;2.12;100.00
54546;BME280;40444;45.184;9.850;2024-02-04T04:49:24;101671.19;;;2.07;100.00
54546;BME280;40444;45.184;9.850;2024-02-04T04:51:52;101673.69;;;1.86;100.00
54546;BME280;40444;45.184;9.850;2024-02-04T04:54:20;101676.84;;;1.72;100.00
54546;BME280;40444;45.184;9.850;2024-02-04T04:56:49;101669.78;;;1.73;100.00
54546;BME280;40444;45.184;9.850;2024-02-04T04:59:17;101662.69;;;1.73;100.00
54546;BME280;40444;45.184;9.850;2024-02-04T05:01:49;101648.47;;;1.77;100.00
54546;BME280;40444;45.184;9.850;2024-02-04T05:04:17;101661.41;;;1.85;100.00
54546;BME280;40444;45.184;9.850;2024-02-04T05:06:53;101662.34;;;1.84;100.00
54546;BME280;40444;45.184;9.850;2024-02-04T05:09:21;101664.06;;;1.85;100.00
54546;BME280;40444;45.184;9.850;2024-02-04T05:11:50;101664.16;;;1.82;100.00
54546;BME280;40444;45.184;9.850;2024-02-04T05:14:18;101666.94;;;1.79;100.00
54546;BME280;40444;45.184;9.850;2024-02-04T05:16:48;101674.78;;;1.81;100.00
54546;BME280;40444;45.184;9.850;2024-02-04T05:19:16;101664.28;;;1.79;100.00
54546;BME280;40444;45.184;9.850;2024-02-04T05:21:45;101664.16;;;1.82;100.00
54546;BME280;40444;45.184;9.850;2024-02-04T05:24:13;101682.88;;;1.76;100.00
54546;BME280;40444;45.184;9.850;2024-02-04T05:26:42;101695.56;;;1.66;100.00
54546;BME280;40444;45.184;9.850;2024-02-04T05:29:10;101699.94;;;1.67;100.00
54546;BME280;40444;45.184;9.850;2024-02-04T05:31:42;101695.44;;;1.69;100.00
54546;BME280;40444;45.184;9.850;2024-02-04T05:34:11;101704.19;;;1.71;100.00
54546;BME280;40444;45.184;9.850;2024-02-04T05:36:40;101706.66;;;1.76;100.00
54546;BME280;40444;45.184;9.850;2024-02-04T05:39:13;101718.88;;;1.78;100.00
54546;BME280;40444;45.184;9.850;2024-02-04T05:41:42;101713.66;;;1.77;100.00
54546;BME280;40444;45.184;9.850;2024-02-04T05:44:11;101721.53;;;1.78;100.00
54546;BME280;40444;45.184;9.850;2024-02-04T05:46:40;101713.75;;;1.74;100.00
54546;BME280;40444;45.184;9.850;2024-02-04T05:49:08;101725.25;;;1.73;100.00
54546;BME280;40444;45.184;9.850;2024-02-04T05:51:38;101729.75;;;1.71;100.00
54546;BME280;40444;45.184;9.850;2024-02-04T05:54:10;101729.03;;;1.66;100.00
54546;BME280;40444;45.184;9.850;2024-02-04T05:56:38;101731.09;;;1.58;100.00
54546;BME280;40444;45.184;9.850;2024-02-04T05:59:06;101746.94;;;1.58;100.00
54546;BME280;40444;45.184;9.850;2024-02-04T06:01:35;101754.16;;;1.52;100.00
54546;BME280;40444;45.184;9.850;2024-02-04T06:04:03;101754.88;;;1.56;100.00
54546;BME280;40444;45.184;9.850;2024-02-04T06:06:32;101761.09;;;1.55;100.00
54546;BME280;40444;45.184;9.850;2024-02-04T06:09:01;101753.28;;;1.52;100.00
54546;BME280;40444;45.184;9.850;2024-02-04T06:11:29;101759.59;;;1.48;100.00
54546;BME280;40444;45.184;9.850;2024-02-04T06:13:57;101765.75;;;1.47;100.00
54546;BME280;40444;45.184;9.850;2024-02-04T06:16:26;101766.69;;;1.46;100.00
54546;BME280;40444;45.184;9.850;2024-02-04T06:18:55;101777.22;;;1.47;100.00
54546;BME280;40444;45.184;9.850;2024-02-04T06:21:25;101787.72;;;1.49;100.00
54546;BME280;40444;45.184;9.850;2024-02-04T06:23:53;101794.97;;;1.42;100.00
54546;BME280;40444;45.184;9.850;2024-02-04T06:26:22;101786.69;;;1.26;100.00
54546;BME280;40444;45.184;9.850;2024-02-04T06:28:51;101779.88;;;1.19;100.00
54546;BME280;40444;45.184;9.850;2024-02-04T06:31:19;101782.41;;;1.22;100.00
54546;BME280;40444;45.184;9.850;2024-02-04T06:33:47;101795.63;;;1.22;100.00
54546;BME280;40444;45.184;9.850;2024-02-04T06:36:16;101792.91;;;1.25;100.00
54546;BME280;40444;45.184;9.850;2024-02-04T06:38:44;101780.44;;;1.29;100.00
54546;BME280;40444;45.184;9.850;2024-02-04T06:41:12;101789.13;;;1.33;100.00
54546;BME280;40444;45.184;9.850;2024-02-04T06:43:41;101793.41;;;1.37;100.00
54546;BME280;40444;45.184;9.850;2024-02-04T06:46:09;101789.69;;;1.42;100.00
54546;BME280;40444;45.184;9.850;2024-02-04T06:48:38;101794.81;;;1.47;100.00
54546;BME280;40444;45.184;9.850;2024-02-04T06:51:06;101801.09;;;1.44;100.00
54546;BME280;40444;45.184;9.850;2024-02-04T06:53:35;101797.53;;;1.45;100.00
54546;BME280;40444;45.184;9.850;2024-02-04T06:56:03;101804.28;;;1.54;100.00
54546;BME280;40444;45.184;9.850;2024-02-04T06:58:32;101819.91;;;1.60;100.00
54546;BME280;40444;45.184;9.850;2024-02-04T07:01:00;101804.13;;;1.59;100.00
54546;BME280;40444;45.184;9.850;2024-02-04T07:03:28;101811.81;;;1.66;100.00
54546;BME280;40444;45.184;9.850;2024-02-04T07:06:00;101815.31;;;1.67;100.00
54546;BME280;40444;45.184;9.850;2024-02-04T07:08:29;101816.94;;;1.71;100.00
54546;BME280;40444;45.184;9.850;2024-02-04T07:10:58;101813.00;;;1.83;100.00
54546;BME280;40444;45.184;9.850;2024-02-04T07:13:33;101819.03;;;1.88;100.00
54546;BME280;40444;45.184;9.850;2024-02-04T07:16:04;101824.16;;;1.92;100.00
54546;BME280;40444;45.184;9.850;2024-02-04T07:18:33;101823.16;;;1.95;100.00
54546;BME280;40444;45.184;9.850;2024-02-04T07:21:02;101818.66;;;1.98;100.00
54546;BME280;40444;45.184;9.850;2024-02-04T07:23:31;101825.63;;;2.01;100.00
54546;BME280;40444;45.184;9.850;2024-02-04T07:26:02;101829.84;;;2.05;100.00
54546;BME280;40444;45.184;9.850;2024-02-04T07:28:31;101839.41;;;2.09;100.00
54546;BME280;40444;45.184;9.850;2024-02-04T07:31:00;101840.34;;;2.08;100.00
54546;BME280;40444;45.184;9.850;2024-02-04T07:33:29;101846.38;;;2.12;100.00
54546;BME280;40444;45.184;9.850;2024-02-04T07:36:00;101846.53;;;2.07;100.00
54546;BME280;40444;45.184;9.850;2024-02-04T07:38:32;101852.69;;;2.08;100.00
54546;BME280;40444;45.184;9.850;2024-02-04T07:41:05;101853.50;;;2.10;100.00
54546;BME280;40444;45.184;9.850;2024-02-04T07:43:40;101844.22;;;2.23;100.00
54546;BME280;40444;45.184;9.850;2024-02-04T07:46:09;101847.59;;;2.28;100.00
54546;BME280;40444;45.184;9.850;2024-02-04T07:48:38;101853.63;;;2.32;100.00
54546;BME280;40444;45.184;9.850;2024-02-04T07:51:07;101843.78;;;2.35;100.00
54546;BME280;40444;45.184;9.850;2024-02-04T07:53:36;101852.56;;;2.37;100.00
54546;BME280;40444;45.184;9.850;2024-02-04T07:56:05;101856.06;;;2.38;100.00
54546;BME280;40444;45.184;9.850;2024-02-04T07:58:34;101852.66;;;2.34;100.00
54546;BME280;40444;45.184;9.850;2024-02-04T08:01:03;101861.34;;;2.38;100.00
54546;BME280;40444;45.184;9.850;2024-02-04T08:03:32;101855.72;;;2.47;100.00
54546;BME280;40444;45.184;9.850;2024-02-04T08:06:01;101854.22;;;2.40;100.00
54546;BME280;40444;45.184;9.850;2024-02-04T08:08:30;101847.19;;;2.39;100.00
54546;BME280;40444;45.184;9.850;2024-02-04T08:10:59;101851.38;;;2.46;100.00
54546;BME280;40444;45.184;9.850;2024-02-04T08:13:28;101843.63;;;2.40;100.00
54546;BME280;40444;45.184;9.850;2024-02-04T08:16:03;101848.66;;;2.47;100.00
54546;BME280;40444;45.184;9.850;2024-02-04T08:18:32;101848.31;;;2.57;100.00
54546;BME280;40444;45.184;9.850;2024-02-04T08:21:12;101863.78;;;2.67;100.00
54546;BME280;40444;45.184;9.850;2024-02-04T08:24:02;101852.88;;;2.76;100.00
54546;BME280;40444;45.184;9.850;2024-02-04T08:26:30;101848.81;;;2.91;100.00
54546;BME280;40444;45.184;9.850;2024-02-04T08:28:59;101864.56;;;2.94;100.00
54546;BME280;40444;45.184;9.850;2024-02-04T08:31:32;101866.22;;;2.97;100.00
54546;BME280;40444;45.184;9.850;2024-02-04T08:34:02;101871.25;;;3.04;100.00
54546;BME280;40444;45.184;9.850;2024-02-04T08:36:30;101869.09;;;3.14;100.00
54546;BME280;40444;45.184;9.850;2024-02-04T08:38:59;101867.47;;;3.34;100.00
54546;BME280;40444;45.184;9.850;2024-02-04T08:41:28;101867.25;;;3.62;100.00
54546;BME280;40444;45.184;9.850;2024-02-04T08:43:56;101865.63;;;3.79;100.00
54546;BME280;40444;45.184;9.850;2024-02-04T08:46:28;101874.66;;;3.96;100.00
54546;BME280;40444;45.184;9.850;2024-02-04T08:48:57;101875.28;;;4.02;100.00
54546;BME280;40444;45.184;9.850;2024-02-04T08:51:25;101882.13;;;4.08;100.00
54546;BME280;40444;45.184;9.850;2024-02-04T08:53:58;101879.63;;;4.25;100.00
54546;BME280;40444;45.184;9.850;2024-02-04T08:56:28;101895.13;;;4.35;100.00
54546;BME280;40444;45.184;9.850;2024-02-04T08:58:57;101904.53;;;4.42;100.00
54546;BME280;40444;45.184;9.850;2024-02-04T09:01:26;101899.25;;;4.62;100.00
54546;BME280;40444;45.184;9.850;2024-02-04T09:03:54;101895.25;;;4.72;100.00
54546;BME280;40444;45.184;9.850;2024-02-04T09:06:23;101902.47;;;4.89;100.00
54546;BME280;40444;45.184;9.850;2024-02-04T09:08:51;101911.44;;;4.87;100.00
54546;BME280;40444;45.184;9.850;2024-02-04T09:11:19;101911.25;;;4.91;100.00
54546;BME280;40444;45.184;9.850;2024-02-04T09:13:50;101911.94;;;4.95;100.00
54546;BME280;40444;45.184;9.850;2024-02-04T09:16:18;101902.91;;;5.18;100.00
54546;BME280;40444;45.184;9.850;2024-02-04T09:18:48;101902.91;;;4.99;100.00
54546;BME280;40444;45.184;9.850;2024-02-04T09:21:20;101902.88;;;5.19;100.00
54546;BME280;40444;45.184;9.850;2024-02-04T09:23:51;101899.41;;;5.36;100.00
54546;BME280;40444;45.184;9.850;2024-02-04T09:26:19;101896.53;;;5.41;100.00
54546;BME280;40444;45.184;9.850;2024-02-04T09:28:49;101900.28;;;5.37;100.00
54546;BME280;40444;45.184;9.850;2024-02-04T09:31:18;101898.06;;;5.27;100.00
54546;BME280;40444;45.184;9.850;2024-02-04T09:33:50;101896.09;;;5.31;100.00
54546;BME280;40444;45.184;9.850;2024-02-04T09:36:19;101899.13;;;5.42;100.00
54546;BME280;40444;45.184;9.850;2024-02-04T09:38:49;101893.72;;;5.63;100.00
54546;BME280;40444;45.184;9.850;2024-02-04T09:41:17;101896.56;;;5.58;100.00
54546;BME280;40444;45.184;9.850;2024-02-04T09:43:46;101891.94;;;5.63;100.00
54546;BME280;40444;45.184;9.850;2024-02-04T09:46:16;101887.72;;;5.76;100.00
54546;BME280;40444;45.184;9.850;2024-02-04T09:48:45;101887.00;;;5.92;100.00
54546;BME280;40444;45.184;9.850;2024-02-04T09:51:14;101890.28;;;5.97;100.00
54546;BME280;40444;45.184;9.850;2024-02-04T09:53:44;101885.59;;;6.02;100.00
54546;BME280;40444;45.184;9.850;2024-02-04T09:56:14;101889.22;;;6.18;100.00
54546;BME280;40444;45.184;9.850;2024-02-04T09:58:49;101893.06;;;6.30;100.00
54546;BME280;40444;45.184;9.850;2024-02-04T10:01:24;101893.84;;;6.49;100.00
54546;BME280;40444;45.184;9.850;2024-02-04T10:03:54;101890.81;;;6.73;100.00
54546;BME280;40444;45.184;9.850;2024-02-04T10:06:22;101904.72;;;6.95;100.00
54546;BME280;40444;45.184;9.850;2024-02-04T10:09:04;101890.94;;;7.20;100.00
54546;BME280;40444;45.184;9.850;2024-02-04T10:11:32;101902.03;;;7.44;100.00
54546;BME280;40444;45.184;9.850;2024-02-04T10:14:00;101889.91;;;7.70;100.00
54546;BME280;40444;45.184;9.850;2024-02-04T10:16:29;101887.97;;;8.04;100.00
54546;BME280;40444;45.184;9.850;2024-02-04T10:18:58;101895.75;;;8.23;100.00
54546;BME280;40444;45.184;9.850;2024-02-04T10:21:28;101893.69;;;8.58;100.00
54546;BME280;40444;45.184;9.850;2024-02-04T10:23:57;101884.66;;;8.89;100.00
54546;BME280;40444;45.184;9.850;2024-02-04T10:26:29;101890.53;;;9.23;100.00
54546;BME280;40444;45.184;9.850;2024-02-04T10:29:04;101882.78;;;9.47;100.00
54546;BME280;40444;45.184;9.850;2024-02-04T10:31:35;101881.53;;;9.79;100.00
54546;BME280;40444;45.184;9.850;2024-02-04T10:34:06;101884.00;;;10.09;100.00
54546;BME280;40444;45.184;9.850;2024-02-04T10:36:35;101883.06;;;10.23;100.00
54546;BME280;40444;45.184;9.850;2024-02-04T10:39:04;101873.81;;;10.54;100.00
54546;BME280;40444;45.184;9.850;2024-02-04T10:41:34;101873.25;;;10.87;100.00
54546;BME280;40444;45.184;9.850;2024-02-04T10:44:03;101866.06;;;11.01;100.00
54546;BME280;40444;45.184;9.850;2024-02-04T10:46:33;101879.56;;;11.12;100.00
54546;BME280;40444;45.184;9.850;2024-02-04T10:49:06;101875.59;;;11.05;100.00
54546;BME280;40444;45.184;9.850;2024-02-04T10:51:41;101854.34;;;11.02;100.00
54546;BME280;40444;45.184;9.850;2024-02-04T10:54:11;101846.63;;;11.10;100.00
54546;BME280;40444;45.184;9.850;2024-02-04T10:56:45;101833.53;;;11.42;100.00
54546;BME280;40444;45.184;9.850;2024-02-04T10:59:15;101830.03;;;11.66;100.00
54546;BME280;40444;45.184;9.850;2024-02-04T11:01:50;101821.84;;;11.91;100.00
54546;BME280;40444;45.184;9.850;2024-02-04T11:04:18;101825.25;;;12.17;100.00
54546;BME280;40444;45.184;9.850;2024-02-04T11:06:47;101828.13;;;12.38;100.00
54546;BME280;40444;45.184;9.850;2024-02-04T11:09:18;101807.25;;;12.64;100.00
54546;BME280;40444;45.184;9.850;2024-02-04T11:11:47;101814.47;;;12.75;100.00
54546;BME280;40444;45.184;9.850;2024-02-04T11:14:17;101812.38;;;12.89;100.00
54546;BME280;40444;45.184;9.850;2024-02-04T11:20:21;101813.72;;;13.06;100.00
54546;BME280;40444;45.184;9.850;2024-02-04T11:25:52;101787.34;;;13.44;100.00
54546;BME280;40444;45.184;9.850;2024-02-04T11:28:26;101790.84;;;13.67;100.00
54546;BME280;40444;45.184;9.850;2024-02-04T11:30:55;101788.69;;;13.81;100.00
54546;BME280;40444;45.184;9.850;2024-02-04T11:33:23;101782.72;;;13.99;100.00
54546;BME280;40444;45.184;9.850;2024-02-04T11:36:05;101769.66;;;13.94;100.00
54546;BME280;40444;45.184;9.850;2024-02-04T11:38:36;101775.16;;;14.13;100.00
54546;BME280;40444;45.184;9.850;2024-02-04T11:41:06;101767.59;;;14.28;100.00
54546;BME280;40444;45.184;9.850;2024-02-04T11:43:36;101758.88;;;14.46;100.00
54546;BME280;40444;45.184;9.850;2024-02-04T11:46:06;101761.81;;;14.54;100.00
54546;BME280;40444;45.184;9.850;2024-02-04T11:48:34;101759.28;;;14.62;100.00
54546;BME280;40444;45.184;9.850;2024-02-04T11:51:05;101758.69;;;14.58;100.00
54546;BME280;40444;45.184;9.850;2024-02-04T11:53:34;101750.63;;;14.68;100.00
54546;BME280;40444;45.184;9.850;2024-02-04T11:56:03;101748.69;;;14.70;100.00
54546;BME280;40444;45.184;9.850;2024-02-04T11:58:32;101739.63;;;14.81;100.00
54546;BME280;40444;45.184;9.850;2024-02-04T12:01:01;101728.78;;;14.71;100.00
54546;BME280;40444;45.184;9.850;2024-02-04T12:03:33;101727.00;;;14.91;100.00
54546;BME280;40444;45.184;9.850;2024-02-04T12:06:03;101721.03;;;14.78;100.00
54546;BME280;40444;45.184;9.850;2024-02-04T12:08:33;101727.72;;;14.93;100.00
54546;BME280;40444;45.184;9.850;2024-02-04T12:11:03;101723.19;;;15.03;100.00
54546;BME280;40444;45.184;9.850;2024-02-04T12:13:32;101721.50;;;15.02;100.00
54546;BME280;40444;45.184;9.850;2024-02-04T12:16:06;101707.56;;;14.87;100.00
54546;BME280;40444;45.184;9.850;2024-02-04T12:18:47;101702.59;;;15.02;100.00
54546;BME280;40444;45.184;9.850;2024-02-04T12:21:16;101699.91;;;15.12;100.00
54546;BME280;40444;45.184;9.850;2024-02-04T12:23:45;101704.03;;;15.16;100.00
54546;BME280;40444;45.184;9.850;2024-02-04T12:26:14;101704.47;;;15.21;100.00
54546;BME280;40444;45.184;9.850;2024-02-04T12:28:43;101701.47;;;15.05;100.00
54546;BME280;40444;45.184;9.850;2024-02-04T12:31:21;101696.34;;;14.92;100.00
54546;BME280;40444;45.184;9.850;2024-02-04T12:33:54;101696.31;;;14.82;100.00
54546;BME280;40444;45.184;9.850;2024-02-04T12:36:32;101685.63;;;14.61;100.00
54546;BME280;40444;45.184;9.850;2024-02-04T12:39:02;101692.88;;;14.71;100.00
54546;BME280;40444;45.184;9.850;2024-02-04T12:41:38;101697.59;;;14.78;100.00
54546;BME280;40444;45.184;9.850;2024-02-04T12:44:06;101688.94;;;14.84;100.00
54546;BME280;40444;45.184;9.850;2024-02-04T12:46:35;101692.34;;;14.86;100.00
54546;BME280;40444;45.184;9.850;2024-02-04T12:49:03;101685.94;;;14.78;100.00
54546;BME280;40444;45.184;9.850;2024-02-04T12:51:33;101678.31;;;14.93;100.00
54546;BME280;40444;45.184;9.850;2024-02-04T12:54:07;101668.50;;;14.91;100.00
54546;BME280;40444;45.184;9.850;2024-02-04T12:59:27;101678.03;;;14.96;100.00
54546;BME280;40444;45.184;9.850;2024-02-04T13:02:03;101671.31;;;14.90;100.00
54546;BME280;40444;45.184;9.850;2024-02-04T13:04:37;101668.50;;;14.91;100.00
54546;BME280;40444;45.184;9.850;2024-02-04T13:07:10;101664.38;;;14.87;100.00
54546;BME280;40444;45.184;9.850;2024-02-04T13:09:41;101671.03;;;14.74;100.00
54546;BME280;40444;45.184;9.850;2024-02-04T13:12:10;101673.31;;;14.78;100.00
54546;BME280;40444;45.184;9.850;2024-02-04T13:14:41;101660.25;;;14.83;100.00
54546;BME280;40444;45.184;9.850;2024-02-04T13:17:09;101657.78;;;14.61;100.00